New Johnsonville, TN (37134)

1:02 PM CDT on March 27, 2017 (GMT -0500)
River Oaks Drive | | Change Station
Active Advisory: Severe Thunderstorm Watch

Elev 433 ft 36.01 °N, 87.97 °W | Updated 13 minutes ago

Partly Cloudy
Partly Cloudy
74.0 °F
Feels Like 76 °F
N
6.0
Wind Variable Wind from ESE

Today
High -- | Low -- °F
--% Chance of Precip.
Yesterday
High -- | Low -- °F
Precip. -- in
Pressure 29.89 in
Visibility 10.0 miles
Clouds Overcast 2300 ft
Heat Index 76 °F
Dew Point 64 °F
Humidity 72%
Rainfall 0.03 in
Snow Depth Not available.
6:44 AM 7:09 PM
Waning Crescent, 0% visible
METAR KCEY 271655Z AUTO 23010KT 10SM OVC023 20/17 A2989 RMK AO1
Pressure 29.89 in
Visibility 10.0 miles
Clouds Overcast 2300 ft
Heat Index 76 °F
Dew Point 64 °F
Humidity 72%
Rainfall 0.03 in
Snow Depth Not available.
6:44 AM 7:09 PM
Waning Crescent, 0% visible
METAR KCEY 271655Z AUTO 23010KT 10SM OVC023 20/17 A2989 RMK AO1

Get Your Daily Forecast Email!

Thanks for signing up!

Be on the lookout for a verification email in your inbox.

You'll start receiving severe weather alerts in your inbox..

×

10-Day Weather Forecast

Almanac

Astronomy

Mar. 27, 2017 Rise Set
Actual Time
Civil Twilight
Nautical Twilight
Astronomical Twilight
Moon
Length of Visible Light
Length of Day
Tomorrow will be .
, % of the Moon is Illuminated

Today's Extremes

State Highs State Lows

Community

WunderPhotos

Upload Photos

1,962,540 photos uploaded!

WunderBlog® & News

Nearby

Air Quality

  Air Quality AQ Index Pollutant
Not available.

Snow Depth

Station Depth Elevation

Earthquake Activity

City Distance Mag. Time & Date
Minimum magnitude displayed is 2.5.

Earthquake Activity

City Distance Mag. Time & Date
Minimum magnitude displayed is 2.5.

Coastal Water Temperatures

Place Temperature

Stations

Nearby Weather Stations

Station Location Temp. Windchill Dew Point Humidity Wind Precip. Elev Updated Type
                   

Watches & Warnings

Severe Thunderstorm Watch
Issued: 12:43 PM CDT Mar. 27, 2017 – National Weather Service

Severe Thunderstorm Watch 89 remains in effect until 800 PM CDT

TN
. Tennessee counties included are

Benton Carroll Chester
Crockett Decatur Dickson
Dyer Fayette Gibson
Hardeman Hardin Haywood
Henderson Henry Hickman
Houston Humphreys Lake
Lauderdale Lewis McNairy
Madison Montgomery Obion
Perry Shelby Stewart
Tipton Wayne Weakley